sensor_id;sensor_type;location;lat;lon;timestamp;pressure;altitude;pressure_sealevel;temperature;humidity
70407;BME280;57821;52.202;0.154;2022-10-16T00:01:20;100446.03;;;13.03;68.08
70407;BME280;57821;52.202;0.154;2022-10-16T00:03:48;100439.13;;;12.99;68.14
70407;BME280;57821;52.202;0.154;2022-10-16T00:06:16;100447.75;;;13.02;68.20
70407;BME280;57821;52.202;0.154;2022-10-16T00:08:44;100446.03;;;13.01;67.96
70407;BME280;57821;52.202;0.154;2022-10-16T00:11:22;100453.84;;;13.01;67.87
70407;BME280;57821;52.202;0.154;2022-10-16T00:13:51;100454.72;;;13.00;67.93
70407;BME280;57821;52.202;0.154;2022-10-16T00:16:18;100459.06;;;13.01;67.63
70407;BME280;57821;52.202;0.154;2022-10-16T00:18:44;100448.66;;;13.00;67.55
70407;BME280;57821;52.202;0.154;2022-10-16T00:21:17;100439.41;;;12.85;67.87
70407;BME280;57821;52.202;0.154;2022-10-16T00:23:44;100454.81;;;12.97;67.13
70407;BME280;57821;52.202;0.154;2022-10-16T00:26:13;100446.34;;;12.86;66.70
70407;BME280;57821;52.202;0.154;2022-10-16T00:28:41;100455.66;;;12.98;66.65
70407;BME280;57821;52.202;0.154;2022-10-16T00:31:10;100442.69;;;12.95;66.51
70407;BME280;57821;52.202;0.154;2022-10-16T00:33:38;100463.50;;;12.96;66.41
70407;BME280;57821;52.202;0.154;2022-10-16T00:36:06;100451.31;;;12.98;66.32
70407;BME280;57821;52.202;0.154;2022-10-16T00:38:34;100447.81;;;12.99;66.41
70407;BME280;57821;52.202;0.154;2022-10-16T00:41:00;100457.34;;;13.00;66.44
70407;BME280;57821;52.202;0.154;2022-10-16T00:48:39;100453.00;;;12.99;65.94
70407;BME280;57821;52.202;0.154;2022-10-16T00:51:07;100459.94;;;13.00;66.08
70407;BME280;57821;52.202;0.154;2022-10-16T00:53:34;100461.66;;;13.01;65.46
70407;BME280;57821;52.202;0.154;2022-10-16T00:56:02;100466.94;;;12.98;65.77
70407;BME280;57821;52.202;0.154;2022-10-16T00:58:29;100463.41;;;12.99;65.27
70407;BME280;57821;52.202;0.154;2022-10-16T01:00:55;100469.47;;;13.00;65.81
70407;BME280;57821;52.202;0.154;2022-10-16T01:03:34;100460.91;;;12.95;65.32
70407;BME280;57821;52.202;0.154;2022-10-16T01:06:13;100443.75;;;12.85;65.52
70407;BME280;57821;52.202;0.154;2022-10-16T01:08:57;100462.63;;;12.96;65.18
70407;BME280;57821;52.202;0.154;2022-10-16T01:11:41;100455.84;;;12.87;65.53
70407;BME280;57821;52.202;0.154;2022-10-16T01:14:20;100461.88;;;12.89;65.29
70407;BME280;57821;52.202;0.154;2022-10-16T01:16:53;100457.66;;;12.82;65.51
70407;BME280;57821;52.202;0.154;2022-10-16T01:22:00;100464.50;;;12.88;64.91
70407;BME280;57821;52.202;0.154;2022-10-16T01:29:34;100470.56;;;12.88;65.07
70407;BME280;57821;52.202;0.154;2022-10-16T01:35:41;100473.22;;;12.85;65.15
70407;BME280;57821;52.202;0.154;2022-10-16T01:37:47;100474.91;;;12.88;64.53
70407;BME280;57821;52.202;0.154;2022-10-16T01:40:18;100464.50;;;12.88;65.08
70407;BME280;57821;52.202;0.154;2022-10-16T01:42:54;100470.63;;;12.85;64.49
70407;BME280;57821;52.202;0.154;2022-10-16T01:45:22;100471.44;;;12.87;64.27
70407;BME280;57821;52.202;0.154;2022-10-16T01:47:49;100470.63;;;12.85;65.22
70407;BME280;57821;52.202;0.154;2022-10-16T01:50:19;100454.38;;;12.72;64.50
70407;BME280;57821;52.202;0.154;2022-10-16T01:52:49;100472.47;;;12.80;64.52
70407;BME280;57821;52.202;0.154;2022-10-16T01:55:27;100460.53;;;12.68;64.99
70407;BME280;57821;52.202;0.154;2022-10-16T01:57:56;100473.34;;;12.77;65.00
70407;BME280;57821;52.202;0.154;2022-10-16T02:00:26;100481.13;;;12.79;64.63
70407;BME280;57821;52.202;0.154;2022-10-16T02:02:53;100488.06;;;12.80;65.07
70407;BME280;57821;52.202;0.154;2022-10-16T02:05:26;100487.19;;;12.81;64.99
70407;BME280;57821;52.202;0.154;2022-10-16T02:07:54;100488.94;;;12.81;64.86
70407;BME280;57821;52.202;0.154;2022-10-16T02:10:21;100494.09;;;12.82;64.65
70407;BME280;57821;52.202;0.154;2022-10-16T02:12:53;100494.06;;;12.84;64.99
70407;BME280;57821;52.202;0.154;2022-10-16T02:15:22;100491.44;;;12.85;64.54
70407;BME280;57821;52.202;0.154;2022-10-16T02:17:48;100489.72;;;12.84;65.51
70407;BME280;57821;52.202;0.154;2022-10-16T02:20:15;100496.66;;;12.85;65.57
70407;BME280;57821;52.202;0.154;2022-10-16T02:22:47;100514.88;;;12.85;65.70
70407;BME280;57821;52.202;0.154;2022-10-16T02:25:22;100495.97;;;12.74;65.92
70407;BME280;57821;52.202;0.154;2022-10-16T02:27:57;100489.03;;;12.74;65.39
70407;BME280;57821;52.202;0.154;2022-10-16T02:30:29;100506.19;;;12.86;65.97
70407;BME280;57821;52.202;0.154;2022-10-16T02:32:57;100512.25;;;12.85;65.56
70407;BME280;57821;52.202;0.154;2022-10-16T02:35:26;100521.81;;;12.85;65.25
70407;BME280;57821;52.202;0.154;2022-10-16T02:37:54;100514.09;;;12.80;65.73
70407;BME280;57821;52.202;0.154;2022-10-16T02:40:22;100526.22;;;12.81;66.31
70407;BME280;57821;52.202;0.154;2022-10-16T02:42:52;100522.81;;;12.76;65.57
70407;BME280;57821;52.202;0.154;2022-10-16T02:45:19;100539.25;;;12.78;65.87
70407;BME280;57821;52.202;0.154;2022-10-16T02:47:46;100537.53;;;12.77;66.31
70407;BME280;57821;52.202;0.154;2022-10-16T02:50:13;100541.91;;;12.75;66.52
70407;BME280;57821;52.202;0.154;2022-10-16T02:52:40;100540.22;;;12.71;66.09
70407;BME280;57821;52.202;0.154;2022-10-16T02:55:07;100543.69;;;12.73;65.96
70407;BME280;57821;52.202;0.154;2022-10-16T02:57:33;100545.41;;;12.72;66.31
70407;BME280;57821;52.202;0.154;2022-10-16T03:00:00;100557.56;;;12.72;66.02
70407;BME280;57821;52.202;0.154;2022-10-16T03:02:26;100551.50;;;12.71;66.15
70407;BME280;57821;52.202;0.154;2022-10-16T03:04:52;100542.13;;;12.63;66.68
70407;BME280;57821;52.202;0.154;2022-10-16T03:07:19;100560.19;;;12.70;66.62
70407;BME280;57821;52.202;0.154;2022-10-16T03:09:45;100556.75;;;12.68;66.77
70407;BME280;57821;52.202;0.154;2022-10-16T03:12:12;100558.50;;;12.68;66.05
70407;BME280;57821;52.202;0.154;2022-10-16T03:14:38;100561.13;;;12.65;65.85
70407;BME280;57821;52.202;0.154;2022-10-16T03:17:05;100560.28;;;12.64;66.24
70407;BME280;57821;52.202;0.154;2022-10-16T03:19:32;100562.00;;;12.64;66.27
70407;BME280;57821;52.202;0.154;2022-10-16T03:21:58;100569.00;;;12.60;66.66
70407;BME280;57821;52.202;0.154;2022-10-16T03:24:24;100567.34;;;12.58;66.78
70407;BME280;57821;52.202;0.154;2022-10-16T03:26:51;100572.50;;;12.59;66.21
70407;BME280;57821;52.202;0.154;2022-10-16T03:29:17;100563.91;;;12.54;66.67
70407;BME280;57821;52.202;0.154;2022-10-16T03:31:44;100581.22;;;12.57;66.98
70407;BME280;57821;52.202;0.154;2022-10-16T03:34:10;100573.44;;;12.54;66.66
70407;BME280;57821;52.202;0.154;2022-10-16T03:36:37;100573.44;;;12.52;66.25
70407;BME280;57821;52.202;0.154;2022-10-16T03:39:03;100583.84;;;12.52;67.09
70407;BME280;57821;52.202;0.154;2022-10-16T03:41:30;100587.38;;;12.50;66.50
70407;BME280;57821;52.202;0.154;2022-10-16T03:43:56;100595.19;;;12.48;67.23
70407;BME280;57821;52.202;0.154;2022-10-16T03:46:22;100605.59;;;12.47;66.98
70407;BME280;57821;52.202;0.154;2022-10-16T03:48:49;100597.00;;;12.45;66.68
70407;BME280;57821;52.202;0.154;2022-10-16T03:51:15;100601.34;;;12.43;67.12
70407;BME280;57821;52.202;0.154;2022-10-16T03:53:42;100611.75;;;12.43;66.14
70407;BME280;57821;52.202;0.154;2022-10-16T03:56:08;100613.53;;;12.39;66.31
70407;BME280;57821;52.202;0.154;2022-10-16T03:58:35;100620.41;;;12.42;66.64
70407;BME280;57821;52.202;0.154;2022-10-16T04:01:01;100622.16;;;12.43;66.08
70407;BME280;57821;52.202;0.154;2022-10-16T04:03:28;100623.03;;;12.42;66.10
70407;BME280;57821;52.202;0.154;2022-10-16T04:05:54;100626.50;;;12.41;66.29
70407;BME280;57821;52.202;0.154;2022-10-16T04:08:21;100631.66;;;12.44;66.33
70407;BME280;57821;52.202;0.154;2022-10-16T04:10:47;100637.75;;;12.43;65.51
70407;BME280;57821;52.202;0.154;2022-10-16T04:13:14;100637.75;;;12.43;65.53
70407;BME280;57821;52.202;0.154;2022-10-16T04:15:40;100634.28;;;12.42;65.35
70407;BME280;57821;52.202;0.154;2022-10-16T04:18:07;100637.75;;;12.43;66.12
70407;BME280;57821;52.202;0.154;2022-10-16T04:20:33;100647.28;;;12.42;66.11
70407;BME280;57821;52.202;0.154;2022-10-16T04:23:00;100653.34;;;12.43;65.54
70407;BME280;57821;52.202;0.154;2022-10-16T04:25:26;100661.19;;;12.40;65.67
70407;BME280;57821;52.202;0.154;2022-10-16T04:27:54;100661.19;;;12.40;65.06
70407;BME280;57821;52.202;0.154;2022-10-16T04:30:21;100658.63;;;12.37;65.21
70407;BME280;57821;52.202;0.154;2022-10-16T04:32:49;100663.81;;;12.37;65.85
70407;BME280;57821;52.202;0.154;2022-10-16T04:35:17;100681.19;;;12.34;65.51
70407;BME280;57821;52.202;0.154;2022-10-16T04:37:43;100689.00;;;12.33;64.94
70407;BME280;57821;52.202;0.154;2022-10-16T04:40:10;100692.53;;;12.27;65.30
70407;BME280;57821;52.202;0.154;2022-10-16T04:42:37;100704.63;;;12.31;64.70
70407;BME280;57821;52.202;0.154;2022-10-16T04:45:05;100691.75;;;12.21;64.97
70407;BME280;57821;52.202;0.154;2022-10-16T04:47:32;100703.75;;;12.29;65.16
70407;BME280;57821;52.202;0.154;2022-10-16T04:49:58;100713.31;;;12.29;65.20
70407;BME280;57821;52.202;0.154;2022-10-16T04:52:25;100715.94;;;12.27;65.06
70407;BME280;57821;52.202;0.154;2022-10-16T04:54:51;100722.88;;;12.25;64.81
70407;BME280;57821;52.202;0.154;2022-10-16T04:57:18;100735.88;;;12.24;64.99
70407;BME280;57821;52.202;0.154;2022-10-16T04:59:44;100746.34;;;12.21;64.91
70407;BME280;57821;52.202;0.154;2022-10-16T05:02:11;100742.00;;;12.18;65.30
70407;BME280;57821;52.202;0.154;2022-10-16T05:04:37;100743.78;;;12.16;65.40
70407;BME280;57821;52.202;0.154;2022-10-16T05:07:03;100760.25;;;12.15;64.96
70407;BME280;57821;52.202;0.154;2022-10-16T05:09:30;100764.59;;;12.13;65.07
70407;BME280;57821;52.202;0.154;2022-10-16T05:11:56;100752.53;;;12.09;65.09
70407;BME280;57821;52.202;0.154;2022-10-16T05:14:23;100773.28;;;12.12;65.48
70407;BME280;57821;52.202;0.154;2022-10-16T05:16:49;100770.72;;;12.09;64.93
70407;BME280;57821;52.202;0.154;2022-10-16T05:19:16;100773.31;;;12.09;64.67
70407;BME280;57821;52.202;0.154;2022-10-16T05:21:57;100781.13;;;12.08;64.80
70407;BME280;57821;52.202;0.154;2022-10-16T05:24:24;100780.25;;;12.07;64.68
70407;BME280;57821;52.202;0.154;2022-10-16T05:26:51;100799.34;;;12.05;65.68
70407;BME280;57821;52.202;0.154;2022-10-16T05:29:18;100795.91;;;12.03;64.72
70407;BME280;57821;52.202;0.154;2022-10-16T05:31:44;100803.72;;;11.98;65.18
70407;BME280;57821;52.202;0.154;2022-10-16T05:34:11;100813.28;;;11.96;65.61
70407;BME280;57821;52.202;0.154;2022-10-16T05:36:37;100818.47;;;11.99;65.69
70407;BME280;57821;52.202;0.154;2022-10-16T05:39:04;100820.19;;;11.97;65.27
70407;BME280;57821;52.202;0.154;2022-10-16T05:41:30;100825.41;;;11.96;65.42
70407;BME280;57821;52.202;0.154;2022-10-16T05:43:57;100832.38;;;11.92;65.25
70407;BME280;57821;52.202;0.154;2022-10-16T05:46:23;100835.84;;;11.91;65.47
70407;BME280;57821;52.202;0.154;2022-10-16T05:48:52;100842.78;;;11.89;65.79
70407;BME280;57821;52.202;0.154;2022-10-16T05:51:18;100847.13;;;11.87;65.61
70407;BME280;57821;52.202;0.154;2022-10-16T05:53:45;100847.13;;;11.85;65.15
70407;BME280;57821;52.202;0.154;2022-10-16T05:56:11;100855.78;;;11.84;65.58
70407;BME280;57821;52.202;0.154;2022-10-16T05:58:38;100853.22;;;11.83;65.44
70407;BME280;57821;52.202;0.154;2022-10-16T06:01:14;100849.78;;;11.81;65.91
70407;BME280;57821;52.202;0.154;2022-10-16T06:03:41;100859.31;;;11.79;65.80
70407;BME280;57821;52.202;0.154;2022-10-16T06:06:09;100858.44;;;11.77;65.68
70407;BME280;57821;52.202;0.154;2022-10-16T06:08:39;100871.47;;;11.75;66.14
70407;BME280;57821;52.202;0.154;2022-10-16T06:11:10;100860.25;;;11.63;65.96
70407;BME280;57821;52.202;0.154;2022-10-16T06:13:37;100880.13;;;11.74;65.58
70407;BME280;57821;52.202;0.154;2022-10-16T06:16:04;100878.38;;;11.72;65.72
70407;BME280;57821;52.202;0.154;2022-10-16T06:18:31;100887.88;;;11.73;66.15
70407;BME280;57821;52.202;0.154;2022-10-16T06:20:57;100884.41;;;11.72;66.50
70407;BME280;57821;52.202;0.154;2022-10-16T06:23:24;100891.34;;;11.72;66.53
70407;BME280;57821;52.202;0.154;2022-10-16T06:25:51;100893.13;;;11.70;66.02
70407;BME280;57821;52.202;0.154;2022-10-16T06:28:18;100893.13;;;11.68;66.27
70407;BME280;57821;52.202;0.154;2022-10-16T06:30:44;100895.72;;;11.68;66.27
70407;BME280;57821;52.202;0.154;2022-10-16T06:33:11;100904.38;;;11.67;66.40
70407;BME280;57821;52.202;0.154;2022-10-16T06:35:38;100913.91;;;11.65;66.06
70407;BME280;57821;52.202;0.154;2022-10-16T06:38:05;100914.78;;;11.63;66.44
70407;BME280;57821;52.202;0.154;2022-10-16T06:40:31;100927.78;;;11.63;66.45
70407;BME280;57821;52.202;0.154;2022-10-16T06:42:58;100932.97;;;11.63;67.03
70407;BME280;57821;52.202;0.154;2022-10-16T06:45:25;100936.44;;;11.62;66.86
70407;BME280;57821;52.202;0.154;2022-10-16T06:47:51;100946.84;;;11.59;66.48
70407;BME280;57821;52.202;0.154;2022-10-16T06:50:18;100944.22;;;11.60;66.12
70407;BME280;57821;52.202;0.154;2022-10-16T06:52:44;100948.56;;;11.60;66.32
70407;BME280;57821;52.202;0.154;2022-10-16T06:55:11;100945.16;;;11.51;66.42
70407;BME280;57821;52.202;0.154;2022-10-16T06:57:37;100960.69;;;11.58;67.04
70407;BME280;57821;52.202;0.154;2022-10-16T07:00:04;100958.97;;;11.57;66.98
70407;BME280;57821;52.202;0.154;2022-10-16T07:02:31;100970.19;;;11.60;67.25
70407;BME280;57821;52.202;0.154;2022-10-16T07:04:57;100977.97;;;11.60;66.41
70407;BME280;57821;52.202;0.154;2022-10-16T07:07:24;100977.16;;;11.57;66.64
70407;BME280;57821;52.202;0.154;2022-10-16T07:09:50;100988.38;;;11.60;67.05
70407;BME280;57821;52.202;0.154;2022-10-16T07:12:17;100989.25;;;11.59;66.83
70407;BME280;57821;52.202;0.154;2022-10-16T07:14:44;101003.97;;;11.62;67.07
70407;BME280;57821;52.202;0.154;2022-10-16T07:17:11;100998.75;;;11.62;67.12
70407;BME280;57821;52.202;0.154;2022-10-16T07:19:37;101010.88;;;11.63;67.01
70407;BME280;57821;52.202;0.154;2022-10-16T07:22:04;101014.34;;;11.65;67.08
70407;BME280;57821;52.202;0.154;2022-10-16T07:24:30;101016.91;;;11.68;67.04
70407;BME280;57821;52.202;0.154;2022-10-16T07:26:57;101026.44;;;11.69;66.79
70407;BME280;57821;52.202;0.154;2022-10-16T07:29:23;101028.19;;;11.70;67.56
70407;BME280;57821;52.202;0.154;2022-10-16T07:31:50;101026.44;;;11.70;67.03
70407;BME280;57821;52.202;0.154;2022-10-16T07:34:18;101029.91;;;11.69;67.03
70407;BME280;57821;52.202;0.154;2022-10-16T07:36:48;101039.44;;;11.73;67.14
70407;BME280;57821;52.202;0.154;2022-10-16T07:39:14;101034.25;;;11.76;67.33
70407;BME280;57821;52.202;0.154;2022-10-16T07:41:40;101041.16;;;11.80;67.60
70407;BME280;57821;52.202;0.154;2022-10-16T07:44:07;101045.47;;;11.84;67.47
70407;BME280;57821;52.202;0.154;2022-10-16T07:46:35;101047.16;;;11.88;66.87
70407;BME280;57821;52.202;0.154;2022-10-16T07:49:02;101051.47;;;11.94;67.20
70407;BME280;57821;52.202;0.154;2022-10-16T07:51:29;101054.94;;;11.98;67.51
70407;BME280;57821;52.202;0.154;2022-10-16T07:53:55;101061.84;;;12.05;67.51
70407;BME280;57821;52.202;0.154;2022-10-16T07:56:22;101067.88;;;12.11;66.91
70407;BME280;57821;52.202;0.154;2022-10-16T07:58:50;101065.22;;;12.17;67.34
70407;BME280;57821;52.202;0.154;2022-10-16T08:01:17;101068.69;;;12.22;66.93
70407;BME280;57821;52.202;0.154;2022-10-16T08:03:46;101067.75;;;12.29;67.40
70407;BME280;57821;52.202;0.154;2022-10-16T08:06:12;101074.66;;;12.37;67.25
70407;BME280;57821;52.202;0.154;2022-10-16T08:08:39;101081.53;;;12.41;66.67
70407;BME280;57821;52.202;0.154;2022-10-16T08:11:06;101088.44;;;12.49;66.79
70407;BME280;57821;52.202;0.154;2022-10-16T08:13:32;101083.19;;;12.54;66.54
70407;BME280;57821;52.202;0.154;2022-10-16T08:15:59;101100.47;;;12.64;66.15
70407;BME280;57821;52.202;0.154;2022-10-16T08:18:26;101106.50;;;12.70;66.38
70407;BME280;57821;52.202;0.154;2022-10-16T08:20:57;101087.47;;;12.67;66.38
70407;BME280;57821;52.202;0.154;2022-10-16T08:23:24;101106.41;;;12.83;66.38
70407;BME280;57821;52.202;0.154;2022-10-16T08:25:51;101113.31;;;12.88;66.03
70407;BME280;57821;52.202;0.154;2022-10-16T08:28:17;101127.09;;;12.99;65.92
70407;BME280;57821;52.202;0.154;2022-10-16T08:30:44;101122.75;;;13.01;65.48
70407;BME280;57821;52.202;0.154;2022-10-16T08:33:10;101129.63;;;13.11;65.69
70407;BME280;57821;52.202;0.154;2022-10-16T08:35:37;101128.69;;;13.23;65.60
70407;BME280;57821;52.202;0.154;2022-10-16T08:38:04;101132.91;;;13.35;65.28
70407;BME280;57821;52.202;0.154;2022-10-16T08:40:33;101125.00;;;13.48;65.01
70407;BME280;57821;52.202;0.154;2022-10-16T08:43:29;101136.03;;;13.73;64.89
70407;BME280;57821;52.202;0.154;2022-10-16T08:48:48;101148.41;;;14.28;63.76
70407;BME280;57821;52.202;0.154;2022-10-16T08:51:22;101145.50;;;14.55;63.21
70407;BME280;57821;52.202;0.154;2022-10-16T08:53:57;101143.41;;;14.78;62.78
70407;BME280;57821;52.202;0.154;2022-10-16T08:56:25;101167.09;;;15.23;62.27
70407;BME280;57821;52.202;0.154;2022-10-16T08:58:53;101163.03;;;15.57;61.87
70407;BME280;57821;52.202;0.154;2022-10-16T09:01:39;101176.34;;;15.91;60.22
70407;BME280;57821;52.202;0.154;2022-10-16T09:07:25;101172.88;;;16.34;58.40
70407;BME280;57821;52.202;0.154;2022-10-16T09:10:14;101182.03;;;16.55;58.15
70407;BME280;57821;52.202;0.154;2022-10-16T09:23:17;101194.38;;;17.63;55.43
70407;BME280;57821;52.202;0.154;2022-10-16T09:25:48;101210.59;;;17.78;54.06
70407;BME280;57821;52.202;0.154;2022-10-16T09:28:17;101204.84;;;17.97;55.11
70407;BME280;57821;52.202;0.154;2022-10-16T09:30:45;101208.72;;;18.15;54.03
70407;BME280;57821;52.202;0.154;2022-10-16T09:33:12;101219.91;;;18.22;52.58
70407;BME280;57821;52.202;0.154;2022-10-16T09:35:42;101192.28;;;18.09;52.71
70407;BME280;57821;52.202;0.154;2022-10-16T09:38:42;101192.63;;;17.96;52.33
70407;BME280;57821;52.202;0.154;2022-10-16T09:41:26;101216.94;;;18.01;50.85
70407;BME280;57821;52.202;0.154;2022-10-16T09:43:57;101205.94;;;17.89;52.48
70407;BME280;57821;52.202;0.154;2022-10-16T09:46:28;101212.94;;;17.88;52.43
70407;BME280;57821;52.202;0.154;2022-10-16T09:48:58;101205.31;;;17.79;52.26
70407;BME280;57821;52.202;0.154;2022-10-16T09:53:58;101224.34;;;17.87;51.55
70407;BME280;57821;52.202;0.154;2022-10-16T09:56:33;101215.66;;;17.85;52.00
70407;BME280;57821;52.202;0.154;2022-10-16T09:59:11;101222.69;;;17.83;52.53
70407;BME280;57821;52.202;0.154;2022-10-16T10:01:47;101199.47;;;17.70;52.09
70407;BME280;57821;52.202;0.154;2022-10-16T10:04:14;101220.19;;;17.79;51.92
70407;BME280;57821;52.202;0.154;2022-10-16T10:06:44;101205.72;;;17.64;52.22
70407;BME280;57821;52.202;0.154;2022-10-16T10:16:49;101216.41;;;17.55;51.33
70407;BME280;57821;52.202;0.154;2022-10-16T10:19:21;101212.25;;;17.46;51.71
70407;BME280;57821;52.202;0.154;2022-10-16T10:21:49;101208.03;;;17.41;51.90
70407;BME280;57821;52.202;0.154;2022-10-16T10:24:18;101213.31;;;17.39;51.51
70407;BME280;57821;52.202;0.154;2022-10-16T10:26:54;101216.69;;;17.43;50.75
70407;BME280;57821;52.202;0.154;2022-10-16T10:32:14;101217.59;;;17.42;50.46
70407;BME280;57821;52.202;0.154;2022-10-16T10:40:15;101222.22;;;17.31;49.48
70407;BME280;57821;52.202;0.154;2022-10-16T10:45:51;101229.28;;;17.29;49.18
70407;BME280;57821;52.202;0.154;2022-10-16T10:48:47;101200.00;;;17.11;49.98
70407;BME280;57821;52.202;0.154;2022-10-16T10:51:22;101206.28;;;17.04;49.54
70407;BME280;57821;52.202;0.154;2022-10-16T10:54:07;101203.78;;;17.00;49.13
70407;BME280;57821;52.202;0.154;2022-10-16T11:07:50;101222.28;;;16.92;47.93
70407;BME280;57821;52.202;0.154;2022-10-16T11:10:22;101208.53;;;16.82;48.42
70407;BME280;57821;52.202;0.154;2022-10-16T11:13:10;101226.75;;;16.87;48.73
70407;BME280;57821;52.202;0.154;2022-10-16T11:15:44;101211.31;;;16.75;48.99
70407;BME280;57821;52.202;0.154;2022-10-16T11:18:26;101212.22;;;16.72;48.82
70407;BME280;57821;52.202;0.154;2022-10-16T11:21:00;101233.00;;;16.80;48.97
70407;BME280;57821;52.202;0.154;2022-10-16T11:23:41;101211.44;;;16.69;48.42
70407;BME280;57821;52.202;0.154;2022-10-16T11:26:16;101228.66;;;16.79;49.34
70407;BME280;57821;52.202;0.154;2022-10-16T11:28:48;101227.75;;;16.81;48.75
70407;BME280;57821;52.202;0.154;2022-10-16T11:31:21;101223.44;;;16.79;48.61
70407;BME280;57821;52.202;0.154;2022-10-16T11:34:07;101228.53;;;16.85;48.26
70407;BME280;57821;52.202;0.154;2022-10-16T11:37:11;101226.81;;;16.84;48.12
70407;BME280;57821;52.202;0.154;2022-10-16T11:39:39;101234.63;;;16.87;48.54
70407;BME280;57821;52.202;0.154;2022-10-16T11:47:52;101219.63;;;16.94;48.47
70407;BME280;57821;52.202;0.154;2022-10-16T11:50:30;101236.81;;;17.05;49.19
70407;BME280;57821;52.202;0.154;2022-10-16T11:55:58;101234.13;;;17.08;48.20
70407;BME280;57821;52.202;0.154;2022-10-16T11:58:31;101221.25;;;16.99;47.59
70407;BME280;57821;52.202;0.154;2022-10-16T12:09:21;101214.63;;;17.20;48.09
70407;BME280;57821;52.202;0.154;2022-10-16T12:11:48;101233.47;;;17.36;47.80
70407;BME280;57821;52.202;0.154;2022-10-16T12:19:17;101219.03;;;17.55;47.40
70407;BME280;57821;52.202;0.154;2022-10-16T12:21:45;101223.25;;;17.62;47.68
70407;BME280;57821;52.202;0.154;2022-10-16T12:24:29;101219.63;;;17.66;47.00
70407;BME280;57821;52.202;0.154;2022-10-16T12:26:57;101227.34;;;17.72;47.61
70407;BME280;57821;52.202;0.154;2022-10-16T12:29:34;101208.94;;;17.75;47.76
70407;BME280;57821;52.202;0.154;2022-10-16T12:32:05;101220.06;;;17.83;47.87
70407;BME280;57821;52.202;0.154;2022-10-16T12:35:17;101212.03;;;17.89;47.97
70407;BME280;57821;52.202;0.154;2022-10-16T12:37:44;101227.13;;;18.14;47.11
70407;BME280;57821;52.202;0.154;2022-10-16T12:40:32;101220.50;;;18.31;46.86
70407;BME280;57821;52.202;0.154;2022-10-16T12:43:55;101206.19;;;18.41;46.84
70407;BME280;57821;52.202;0.154;2022-10-16T12:46:19;101221.22;;;18.69;45.55
70407;BME280;57821;52.202;0.154;2022-10-16T12:48:46;101218.16;;;18.82;45.83
70407;BME280;57821;52.202;0.154;2022-10-16T12:54:00;101220.59;;;18.88;45.42
70407;BME280;57821;52.202;0.154;2022-10-16T13:00:07;101220.53;;;18.90;44.91
70407;BME280;57821;52.202;0.154;2022-10-16T13:08:13;101213.72;;;18.84;44.71
70407;BME280;57821;52.202;0.154;2022-10-16T13:13:39;101211.75;;;18.91;44.51
70407;BME280;57821;52.202;0.154;2022-10-16T13:21:59;101213.53;;;18.91;44.40
70407;BME280;57821;52.202;0.154;2022-10-16T13:30:00;101199.03;;;18.77;44.17
70407;BME280;57821;52.202;0.154;2022-10-16T13:32:27;101210.78;;;18.94;44.63
70407;BME280;57821;52.202;0.154;2022-10-16T13:34:55;101200.09;;;19.00;44.40
70407;BME280;57821;52.202;0.154;2022-10-16T13:37:24;101194.75;;;19.03;44.52
70407;BME280;57821;52.202;0.154;2022-10-16T13:40:04;101208.22;;;19.20;44.46
70407;BME280;57821;52.202;0.154;2022-10-16T13:42:38;101221.06;;;19.29;44.44
70407;BME280;57821;52.202;0.154;2022-10-16T13:45:04;101226.28;;;19.31;44.81
70407;BME280;57821;52.202;0.154;2022-10-16T13:47:31;101229.44;;;19.40;44.19
70407;BME280;57821;52.202;0.154;2022-10-16T13:50:09;101223.91;;;19.51;44.82
70407;BME280;57821;52.202;0.154;2022-10-16T13:52:37;101223.41;;;19.64;43.40
70407;BME280;57821;52.202;0.154;2022-10-16T13:55:10;101229.59;;;19.63;43.51
70407;BME280;57821;52.202;0.154;2022-10-16T13:57:37;101238.41;;;19.62;43.42
70407;BME280;57821;52.202;0.154;2022-10-16T14:00:18;101221.19;;;19.52;43.74
70407;BME280;57821;52.202;0.154;2022-10-16T14:02:44;101225.03;;;19.68;44.03
70407;BME280;57821;52.202;0.154;2022-10-16T14:05:14;101231.81;;;19.76;44.26
70407;BME280;57821;52.202;0.154;2022-10-16T14:07:41;101224.56;;;19.82;44.24
70407;BME280;57821;52.202;0.154;2022-10-16T14:10:41;101228.88;;;19.85;43.89
70407;BME280;57821;52.202;0.154;2022-10-16T14:13:14;101232.25;;;19.88;43.25
70407;BME280;57821;52.202;0.154;2022-10-16T14:15:46;101208.03;;;19.79;43.81
70407;BME280;57821;52.202;0.154;2022-10-16T14:18:19;101209.03;;;19.75;43.63
70407;BME280;57821;52.202;0.154;2022-10-16T14:20:46;101225.63;;;19.77;43.95
70407;BME280;57821;52.202;0.154;2022-10-16T14:23:28;101221.41;;;19.73;44.12
70407;BME280;57821;52.202;0.154;2022-10-16T14:28:37;101215.47;;;19.66;43.86
70407;BME280;57821;52.202;0.154;2022-10-16T14:33:48;101216.63;;;19.57;44.34
70407;BME280;57821;52.202;0.154;2022-10-16T14:36:16;101203.88;;;19.45;43.74
70407;BME280;57821;52.202;0.154;2022-10-16T14:38:57;101203.22;;;19.39;44.13
70407;BME280;57821;52.202;0.154;2022-10-16T14:41:24;101224.94;;;19.45;44.34
70407;BME280;57821;52.202;0.154;2022-10-16T14:43:53;101199.94;;;19.32;44.66
70407;BME280;57821;52.202;0.154;2022-10-16T14:46:22;101215.44;;;19.40;44.91
70407;BME280;57821;52.202;0.154;2022-10-16T14:49:02;101217.28;;;19.38;45.21
70407;BME280;57821;52.202;0.154;2022-10-16T14:51:30;101215.56;;;19.37;45.04
70407;BME280;57821;52.202;0.154;2022-10-16T14:53:56;101212.97;;;19.35;45.16
70407;BME280;57821;52.202;0.154;2022-10-16T14:56:29;101197.59;;;19.23;44.69
70407;BME280;57821;52.202;0.154;2022-10-16T14:58:58;101210.69;;;19.24;44.84
70407;BME280;57821;52.202;0.154;2022-10-16T15:01:26;101204.69;;;19.21;45.40
70407;BME280;57821;52.202;0.154;2022-10-16T15:03:52;101204.78;;;19.18;45.51